Time;durP1;ratioP1;P1;durP2;ratioP2;P2;SDS_P1;SDS_P2;PMS_P1;PMS_P2;Temp;Humidity;BMP_temperature;BMP_pressure;BME280_temperature;BME280_humidity;BME280_pressure;Samples;Min_cycle;Max_cycle;Signal;HPM_P1;HPM_P2
2024/02/18 00:02:17;;;;;;;7.27;2.00;;;;;;;6.21;100.00;102858.25;6103157;23;20217;-74
2024/02/18 00:04:44;;;;;;;4.13;2.00;;;;;;;6.22;100.00;102859.06;6102873;23;20166;-74
2024/02/18 00:07:11;;;;;;;7.60;2.27;;;;;;;6.21;100.00;102858.25;6067420;23;20194;-74
2024/02/18 00:09:38;;;;;;;5.03;1.97;;;;;;;6.21;100.00;102858.25;6103253;23;20211;-74
2024/02/18 00:12:05;;;;;;;7.80;2.37;;;;;;;6.21;100.00;102855.63;6068206;23;20174;-74
2024/02/18 00:14:32;;;;;;;8.33;2.20;;;;;;;6.22;100.00;102853.81;6103365;23;20520;-75
2024/02/18 00:16:58;;;;;;;7.50;2.33;;;;;;;6.22;100.00;102856.44;6067918;23;20193;-74
2024/02/18 00:19:24;;;;;;;6.40;2.20;;;;;;;6.21;100.00;102860.88;6103076;23;20186;-74
2024/02/18 00:21:51;;;;;;;4.70;2.40;;;;;;;6.20;100.00;102861.09;6067558;23;20176;-74
2024/02/18 00:24:19;;;;;;;8.70;2.47;;;;;;;6.21;100.00;102865.34;6067788;23;20170;-74
2024/02/18 00:26:49;;;;;;;12.30;2.63;;;;;;;6.20;100.00;102864.53;6067517;23;20659;-73
2024/02/18 00:29:16;;;;;;;5.87;2.53;;;;;;;6.20;100.00;102861.91;6102812;23;20270;-74
2024/02/18 00:31:42;;;;;;;8.03;2.30;;;;;;;6.18;100.00;102850.88;6103170;23;20194;-74
2024/02/18 00:34:08;;;;;;;7.50;2.57;;;;;;;6.19;100.00;102838.53;6103246;23;20197;-73
2024/02/18 00:36:35;;;;;;;8.97;2.70;;;;;;;6.19;100.00;102847.22;6103018;23;20177;-74
2024/02/18 00:39:01;;;;;;;7.73;2.10;;;;;;;6.19;100.00;102843.78;6103213;23;20213;-74
2024/02/18 00:41:29;;;;;;;7.17;2.13;;;;;;;6.18;100.00;102847.44;6103132;23;20221;-74
2024/02/18 00:43:56;;;;;;;5.20;2.33;;;;;;;6.18;100.00;102853.50;6101120;23;20619;-75
2024/02/18 00:46:22;;;;;;;6.17;2.07;;;;;;;6.16;100.00;102852.94;6102639;23;20204;-74
2024/02/18 00:48:48;;;;;;;4.40;1.90;;;;;;;6.17;100.00;102840.63;6067482;23;20197;-74
2024/02/18 00:51:15;;;;;;;7.97;2.20;;;;;;;6.17;100.00;102846.66;6102635;23;20628;-73
2024/02/18 00:53:41;;;;;;;4.77;2.37;;;;;;;6.17;100.00;102848.50;6103248;23;20201;-74
2024/02/18 00:56:09;;;;;;;7.43;2.03;;;;;;;6.17;100.00;102844.03;6102662;23;20517;-74
2024/02/18 00:58:37;;;;;;;6.50;1.90;;;;;;;6.16;100.00;102839.81;6102443;23;20653;-74
2024/02/18 01:01:05;;;;;;;6.23;2.30;;;;;;;6.15;100.00;102838.22;6103285;23;20177;-74
2024/02/18 01:03:31;;;;;;;11.20;2.00;;;;;;;6.16;100.00;102828.53;6102705;23;20192;-73
2024/02/18 01:05:57;;;;;;;5.40;2.00;;;;;;;6.17;100.00;102835.38;6102547;23;20168;-74
2024/02/18 01:08:24;;;;;;;6.67;2.10;;;;;;;6.15;100.00;102843.47;6066309;23;20290;-74
2024/02/18 01:10:50;;;;;;;7.17;2.07;;;;;;;6.16;100.00;102839.81;6102402;23;20168;-74
2024/02/18 01:13:17;;;;;;;7.40;2.17;;;;;;;6.14;100.00;102836.66;6102638;23;20685;-74
2024/02/18 01:15:45;;;;;;;5.80;2.50;;;;;;;6.14;100.00;102833.22;6102256;23;20253;-73
2024/02/18 01:18:11;;;;;;;11.63;2.97;;;;;;;6.15;100.00;102834.81;6102480;23;20190;-74
2024/02/18 01:20:38;;;;;;;12.63;3.90;;;;;;;6.15;100.00;102829.56;6102374;23;20653;-74
2024/02/18 01:23:04;;;;;;;10.57;3.60;;;;;;;6.14;100.00;102841.09;6102338;23;20166;-74
2024/02/18 01:25:30;;;;;;;14.80;5.37;;;;;;;6.14;100.00;102835.84;6102497;23;20165;-74
2024/02/18 01:27:57;;;;;;;11.23;3.80;;;;;;;6.14;100.00;102838.47;6102771;23;20204;-75
2024/02/18 01:30:23;;;;;;;10.80;3.53;;;;;;;6.13;100.00;102837.69;6102712;23;20217;-73
2024/02/18 01:32:51;;;;;;;7.57;3.43;;;;;;;6.13;100.00;102840.31;6102831;23;20238;-74
2024/02/18 01:35:18;;;;;;;9.73;2.50;;;;;;;6.14;100.00;102838.47;6101153;23;20176;-74
2024/02/18 01:37:44;;;;;;;6.17;2.47;;;;;;;6.13;100.00;102839.50;6101719;23;20563;-74
2024/02/18 01:40:11;;;;;;;5.07;2.77;;;;;;;6.14;100.00;102838.47;6066650;23;20640;-74
2024/02/18 01:42:38;;;;;;;5.43;2.17;;;;;;;6.12;100.00;102836.06;6067309;23;20174;-74
2024/02/18 01:45:06;;;;;;;9.87;2.40;;;;;;;6.13;100.00;102839.50;6102957;23;20189;-73
2024/02/18 01:47:33;;;;;;;8.83;3.03;;;;;;;6.12;100.00;102840.53;6101555;23;20190;-74
2024/02/18 01:50:01;;;;;;;6.53;2.57;;;;;;;6.12;100.00;102841.31;6102519;23;20162;-74
2024/02/18 01:52:29;;;;;;;5.20;2.40;;;;;;;6.12;100.00;102841.31;6066384;23;20174;-74
2024/02/18 01:54:56;;;;;;;5.33;2.23;;;;;;;6.12;100.00;102840.53;6102291;23;20218;-74
2024/02/18 01:57:27;;;;;;;5.07;2.10;;;;;;;6.11;100.00;102837.13;6102097;23;20186;-74
2024/02/18 01:59:54;;;;;;;5.67;2.57;;;;;;;6.11;100.00;102841.59;6102327;23;20169;-74
2024/02/18 02:02:21;;;;;;;8.30;2.27;;;;;;;6.11;100.00;102836.34;6066936;23;20174;-74
2024/02/18 02:04:48;;;;;;;5.30;2.23;;;;;;;6.09;100.00;102841.81;6102232;23;20176;-74
2024/02/18 02:07:16;;;;;;;5.73;2.63;;;;;;;6.10;100.00;102843.41;6102205;23;20192;-74
2024/02/18 02:09:42;;;;;;;10.20;2.83;;;;;;;6.09;100.00;102836.56;6102212;23;20192;-74
2024/02/18 02:12:09;;;;;;;7.83;2.63;;;;;;;6.09;100.00;102835.78;6101978;23;20169;-75
2024/02/18 02:14:36;;;;;;;7.10;3.07;;;;;;;6.08;100.00;102839.44;6067196;23;20587;-74
2024/02/18 02:17:02;;;;;;;7.97;2.73;;;;;;;6.07;100.00;102829.97;6102169;23;20162;-73
2024/02/18 02:19:47;;;;;;;7.53;2.10;;;;;;;6.08;100.00;102831.56;6102210;23;20525;-74
2024/02/18 02:22:13;;;;;;;5.90;2.80;;;;;;;6.08;100.00;102831.56;6102557;23;20178;-74
2024/02/18 02:24:41;;;;;;;6.70;2.60;;;;;;;6.08;100.00;102828.94;6102377;23;20620;-76
2024/02/18 02:30:59;;;;;;;6.37;2.70;;;;;;;6.05;100.00;102830.22;6104537;23;20472;-74
2024/02/18 02:33:25;;;;;;;3.57;2.13;;;;;;;6.05;100.00;102835.47;6103508;23;20162;-74
2024/02/18 02:35:51;;;;;;;7.00;2.23;;;;;;;6.04;100.00;102836.50;6068519;23;20178;-73
2024/02/18 02:38:17;;;;;;;6.67;2.70;;;;;;;6.03;100.00;102831.50;6103852;23;20188;-74
2024/02/18 02:40:44;;;;;;;7.70;2.53;;;;;;;6.03;100.00;102836.72;6104242;23;20174;-74
2024/02/18 02:46:59;;;;;;;6.53;2.30;;;;;;;6.01;100.00;102842.22;6103799;23;20584;-73
2024/02/18 02:49:25;;;;;;;7.37;2.07;;;;;;;6.00;100.00;102845.88;6104042;23;20717;-73
2024/02/18 02:51:51;;;;;;;11.10;2.20;;;;;;;6.00;100.00;102845.09;6104158;23;20595;-73
2024/02/18 02:54:18;;;;;;;5.90;1.93;;;;;;;5.98;100.00;102837.47;6103747;23;20503;-74
2024/02/18 02:56:44;;;;;;;9.37;2.30;;;;;;;5.98;100.00;102836.66;6104031;23;20173;-74
2024/02/18 02:59:10;;;;;;;9.87;2.57;;;;;;;5.97;100.00;102835.06;6103697;23;20182;-74
2024/02/18 03:01:37;;;;;;;9.10;2.90;;;;;;;5.96;100.00;102836.13;6103601;23;20166;-74
2024/02/18 03:04:05;;;;;;;7.37;3.37;;;;;;;5.95;100.00;102832.69;6104060;23;20174;-73
2024/02/18 03:06:33;;;;;;;9.20;4.00;;;;;;;5.94;100.00;102825.06;6103077;23;20505;-74
2024/02/18 03:08:59;;;;;;;11.03;4.07;;;;;;;5.93;100.00;102820.84;6103360;23;20218;-75
2024/02/18 03:11:25;;;;;;;8.07;3.50;;;;;;;5.93;100.00;102808.53;6103483;23;20162;-74
2024/02/18 03:13:52;;;;;;;10.40;2.77;;;;;;;5.92;100.00;102803.53;6103763;23;20176;-74
2024/02/18 03:16:18;;;;;;;5.27;2.50;;;;;;;5.92;100.00;102799.09;6103793;23;20227;-73
2024/02/18 03:18:44;;;;;;;5.63;2.50;;;;;;;5.89;100.00;102798.75;6103679;23;20473;-74
2024/02/18 03:21:12;;;;;;;7.23;2.50;;;;;;;5.89;100.00;102796.13;6068493;23;20181;-74
2024/02/18 03:23:39;;;;;;;6.70;2.47;;;;;;;5.88;100.00;102797.19;6103418;23;20170;-74
2024/02/18 03:26:05;;;;;;;4.30;2.00;;;;;;;5.85;100.00;102801.06;6068282;23;20262;-74
2024/02/18 03:28:32;;;;;;;7.50;2.30;;;;;;;5.81;100.00;102791.31;6103225;23;20200;-74
2024/02/18 03:30:58;;;;;;;5.13;2.27;;;;;;;5.79;100.00;102795.97;6103428;23;20166;-74
2024/02/18 03:33:27;;;;;;;5.83;2.17;;;;;;;5.75;100.00;102798.25;6103329;23;20167;-75
2024/02/18 03:35:53;;;;;;;5.57;2.07;;;;;;;5.71;100.00;102788.50;6103348;23;20524;-75
2024/02/18 03:38:21;;;;;;;5.77;2.20;;;;;;;5.66;100.00;102799.72;6103517;23;20182;-74
2024/02/18 03:40:47;;;;;;;3.70;1.80;;;;;;;5.60;100.00;102799.88;6103326;23;20174;-74
2024/02/18 03:43:14;;;;;;;5.70;2.00;;;;;;;5.54;100.00;102796.38;6103502;23;20175;-74
2024/02/18 03:45:41;;;;;;;9.30;2.40;;;;;;;5.47;100.00;102803.59;6103143;23;20787;-74
2024/02/18 03:48:08;;;;;;;3.43;2.07;;;;;;;5.40;100.00;102804.78;6103414;23;20198;-75
2024/02/18 03:50:34;;;;;;;4.70;1.93;;;;;;;5.30;100.00;102800.16;6103384;23;20170;-74
2024/02/18 03:53:00;;;;;;;4.53;2.03;;;;;;;5.20;100.00;102801.81;6103637;23;20192;-74
2024/02/18 03:55:29;;;;;;;3.87;2.27;;;;;;;5.06;100.00;102792.66;6103460;23;20173;-74
2024/02/18 03:57:56;;;;;;;7.30;2.00;;;;;;;4.95;100.00;102780.41;6103112;23;20260;-74
2024/02/18 04:00:22;;;;;;;4.40;2.10;;;;;;;4.82;100.00;102784.09;6103467;23;20789;-74
2024/02/18 04:02:48;;;;;;;8.57;3.40;;;;;;;4.69;100.00;102767.88;6068002;23;20184;-74
2024/02/18 04:05:15;;;;;;;6.43;2.90;;;;;;;4.57;100.00;102778.38;6104081;23;20179;-74
2024/02/18 04:07:42;;;;;;;6.80;2.20;;;;;;;4.44;100.00;102768.19;6102141;23;20267;-74
2024/02/18 04:10:09;;;;;;;6.73;2.50;;;;;;;4.33;100.00;102766.41;6103545;23;20688;-74
2024/02/18 04:12:36;;;;;;;14.67;3.17;;;;;;;4.21;100.00;102767.44;6103320;23;20249;-73
2024/02/18 04:15:03;;;;;;;15.10;6.17;;;;;;;4.09;100.00;102761.44;6103713;23;20193;-73
2024/02/18 04:17:29;;;;;;;10.80;4.20;;;;;;;3.97;100.00;102764.06;6103008;23;20241;-73
2024/02/18 04:19:56;;;;;;;10.30;3.47;;;;;;;3.86;100.00;102764.84;6068527;23;20177;-74
2024/02/18 04:22:22;;;;;;;12.07;3.80;;;;;;;3.77;100.00;102753.16;6103123;23;20205;-74
2024/02/18 04:24:49;;;;;;;14.20;7.10;;;;;;;3.66;100.00;102751.34;6103900;23;20169;-73
2024/02/18 04:27:15;;;;;;;8.30;3.97;;;;;;;3.57;100.00;102755.28;6102969;23;20168;-75
2024/02/18 04:29:43;;;;;;;11.43;4.17;;;;;;;3.48;100.00;102758.47;6103183;23;20192;-74
2024/02/18 04:32:09;;;;;;;9.70;4.00;;;;;;;3.41;100.00;102761.19;6102954;23;20163;-74
2024/02/18 04:34:36;;;;;;;6.43;3.10;;;;;;;3.28;100.00;102766.63;6103360;23;20162;-74
2024/02/18 04:37:02;;;;;;;6.47;2.30;;;;;;;3.21;100.00;102759.91;6103803;23;20174;-74
2024/02/18 04:39:29;;;;;;;6.17;3.03;;;;;;;3.13;100.00;102760.22;6103461;23;20182;-74
2024/02/18 04:41:55;;;;;;;6.03;2.80;;;;;;;3.02;100.00;102759.16;6103073;23;20173;-74
2024/02/18 04:44:22;;;;;;;6.23;3.13;;;;;;;2.94;100.00;102769.91;6103608;23;20174;-74
2024/02/18 04:46:49;;;;;;;6.80;2.97;;;;;;;2.86;100.00;102775.41;6103067;23;20679;-74
2024/02/18 04:49:16;;;;;;;7.53;3.23;;;;;;;2.80;100.00;102773.69;6067360;23;20202;-74
2024/02/18 04:51:42;;;;;;;7.03;2.97;;;;;;;2.73;100.00;102777.41;6103272;23;20194;-74
2024/02/18 04:54:09;;;;;;;5.67;2.93;;;;;;;2.65;100.00;102769.91;6103125;23;20177;-74
2024/02/18 04:56:35;;;;;;;12.00;3.10;;;;;;;2.56;100.00;102766.00;6103410;23;20177;-75
2024/02/18 04:59:02;;;;;;;8.67;2.93;;;;;;;2.49;100.00;102775.72;6102911;23;20182;-74
2024/02/18 05:01:28;;;;;;;6.97;2.17;;;;;;;2.44;100.00;102771.13;6103442;23;20168;-74
2024/02/18 05:03:56;;;;;;;2.83;1.93;;;;;;;2.38;100.00;102784.28;6102994;23;20178;-74
2024/02/18 05:06:22;;;;;;;8.70;2.80;;;;;;;2.31;100.00;102775.72;6102918;23;20166;-75
2024/02/18 05:08:48;;;;;;;3.57;2.30;;;;;;;2.24;100.00;102780.97;6103064;23;20200;-74
2024/02/18 05:11:15;;;;;;;3.23;2.00;;;;;;;2.18;100.00;102778.47;6103715;23;20350;-74
2024/02/18 05:13:41;;;;;;;5.43;2.37;;;;;;;2.14;100.00;102778.06;6103208;23;20189;-74
2024/02/18 05:16:08;;;;;;;4.90;1.93;;;;;;;2.06;100.00;102770.56;6103086;23;20166;-74
2024/02/18 05:18:34;;;;;;;6.77;2.20;;;;;;;2.01;100.00;102764.38;6067814;23;20190;-74
2024/02/18 05:21:03;;;;;;;9.53;2.43;;;;;;;1.91;100.00;102767.50;6103432;23;20176;-74
2024/02/18 05:23:30;;;;;;;4.03;2.20;;;;;;;1.85;100.00;102776.16;6103062;23;20168;-74
2024/02/18 05:25:56;;;;;;;9.47;2.73;;;;;;;1.79;100.00;102768.41;6103627;23;20168;-74
2024/02/18 05:28:23;;;;;;;3.97;2.20;;;;;;;1.74;100.00;102756.03;6102945;23;20190;-74
2024/02/18 05:30:50;;;;;;;9.13;2.27;;;;;;;1.70;100.00;102767.88;6102959;23;20166;-74
2024/02/18 05:33:16;;;;;;;4.83;2.60;;;;;;;1.66;100.00;102771.91;6102821;23;20173;-74
2024/02/18 05:35:42;;;;;;;6.47;2.47;;;;;;;1.64;100.00;102766.16;6102956;23;20178;-74
2024/02/18 05:38:10;;;;;;;5.33;2.53;;;;;;;1.60;100.00;102772.78;6103493;23;20650;-74
2024/02/18 05:40:36;;;;;;;11.57;2.83;;;;;;;1.57;100.00;102772.41;6103541;23;20604;-74
2024/02/18 05:43:03;;;;;;;7.37;2.60;;;;;;;1.54;100.00;102781.44;6103456;23;20165;-74
2024/02/18 05:45:32;;;;;;;6.47;2.70;;;;;;;1.53;100.00;102774.66;6102774;23;20166;-74
2024/02/18 05:47:58;;;;;;;10.87;2.93;;;;;;;1.51;100.00;102765.44;6103459;23;20532;-74
2024/02/18 05:50:25;;;;;;;6.93;2.43;;;;;;;1.50;100.00;102763.88;6103061;23;20176;-74
2024/02/18 05:52:51;;;;;;;6.37;2.73;;;;;;;1.51;100.00;102755.03;6102802;23;20166;-74
2024/02/18 05:55:19;;;;;;;4.73;2.60;;;;;;;1.43;100.00;102755.28;6102701;23;20166;-74
2024/02/18 05:57:45;;;;;;;5.93;2.40;;;;;;;1.40;100.00;102764.31;6102694;23;20523;-74
2024/02/18 06:00:13;;;;;;;5.83;2.73;;;;;;;1.36;100.00;102765.75;6102544;23;20655;-74
2024/02/18 06:02:39;;;;;;;4.97;2.60;;;;;;;1.34;100.00;102765.16;6102937;23;20620;-75
2024/02/18 06:05:07;;;;;;;7.93;2.50;;;;;;;1.34;100.00;102775.59;6102871;23;20176;-74
2024/02/18 06:07:33;;;;;;;7.83;2.63;;;;;;;1.31;100.00;102780.41;6102372;23;20326;-74
2024/02/18 06:09:59;;;;;;;7.00;2.90;;;;;;;1.28;100.00;102773.00;6102851;23;20189;-74
2024/02/18 06:12:27;;;;;;;6.20;2.80;;;;;;;1.28;100.00;102784.22;6102820;23;20169;-74
2024/02/18 06:14:54;;;;;;;7.23;2.83;;;;;;;1.27;100.00;102776.63;6103335;23;20201;-74
2024/02/18 06:17:20;;;;;;;5.57;2.70;;;;;;;1.24;100.00;102777.84;6102974;23;20168;-74
2024/02/18 06:19:47;;;;;;;3.50;2.20;;;;;;;1.20;100.00;102788.91;6102933;23;20285;-75
2024/02/18 06:22:13;;;;;;;4.47;2.93;;;;;;;1.18;100.00;102783.91;6067342;23;20166;-75
2024/02/18 06:24:39;;;;;;;7.40;2.90;;;;;;;1.16;100.00;102787.72;6067772;23;20174;-74
2024/02/18 06:27:06;;;;;;;5.47;2.90;;;;;;;1.18;100.00;102777.88;6102620;23;20173;-74
2024/02/18 06:29:34;;;;;;;5.37;2.70;;;;;;;1.17;100.00;102771.09;6103063;23;20190;-74
2024/02/18 06:32:00;;;;;;;5.07;2.77;;;;;;;1.16;100.00;102766.91;6102718;23;20173;-75
2024/02/18 06:34:26;;;;;;;4.73;3.37;;;;;;;1.16;100.00;102764.28;6103091;23;20162;-74
2024/02/18 06:36:53;;;;;;;9.10;3.30;;;;;;;1.16;100.00;102767.72;6103418;23;20335;-75
2024/02/18 06:39:19;;;;;;;8.10;3.93;;;;;;;1.17;100.00;102756.28;6103134;23;20177;-74
2024/02/18 06:41:48;;;;;;;6.37;3.07;;;;;;;1.18;100.00;102760.47;6102817;23;20166;-74
2024/02/18 06:44:15;;;;;;;11.10;3.77;;;;;;;1.18;100.00;102760.47;6103089;23;20175;-75
2024/02/18 06:46:42;;;;;;;11.63;4.57;;;;;;;1.21;100.00;102743.66;6102611;23;20173;-74
2024/02/18 06:49:09;;;;;;;12.43;4.57;;;;;;;1.22;100.00;102750.44;6100777;23;20186;-75
2024/02/18 06:51:35;;;;;;;14.00;5.40;;;;;;;1.26;100.00;102746.41;6102722;23;20672;-74
2024/02/18 06:54:01;;;;;;;7.63;5.07;;;;;;;1.31;100.00;102749.19;6102748;23;20607;-74
2024/02/18 06:56:28;;;;;;;11.30;4.83;;;;;;;1.31;100.00;102757.78;6102675;23;20166;-74
2024/02/18 06:58:54;;;;;;;12.60;5.27;;;;;;;1.34;100.00;102753.94;6067879;23;20190;-74
2024/02/18 07:01:21;;;;;;;16.23;5.93;;;;;;;1.39;100.00;102746.31;6102581;23;20241;-74
2024/02/18 07:03:49;;;;;;;16.27;6.03;;;;;;;1.44;100.00;102747.28;6102436;23;20646;-75
2024/02/18 07:06:18;;;;;;;8.47;5.07;;;;;;;1.48;100.00;102745.84;6102051;23;20217;-74
2024/02/18 07:08:44;;;;;;;15.67;6.00;;;;;;;1.54;100.00;102752.81;6102497;23;20186;-75
2024/02/18 07:11:11;;;;;;;19.10;7.80;;;;;;;1.60;100.00;102754.56;6102132;23;20178;-75
2024/02/18 07:13:37;;;;;;;19.60;9.40;;;;;;;1.64;100.00;102758.31;6103805;23;20316;-74
2024/02/18 07:16:04;;;;;;;17.33;7.03;;;;;;;1.72;100.00;102762.47;6104224;23;20496;-75
2024/02/18 07:18:30;;;;;;;19.03;7.63;;;;;;;1.80;100.00;102764.78;6068641;23;20452;-74
2024/02/18 07:20:58;;;;;;;16.57;6.43;;;;;;;1.86;100.00;102762.13;6068699;23;20225;-75
2024/02/18 07:23:24;;;;;;;13.80;6.13;;;;;;;1.95;100.00;102757.44;6068016;23;20180;-74
2024/02/18 07:25:50;;;;;;;13.40;6.13;;;;;;;2.04;100.00;102743.13;6103875;23;20173;-74
2024/02/18 07:28:17;;;;;;;16.10;6.40;;;;;;;2.11;100.00;102744.66;6103525;23;20197;-75
2024/02/18 07:30:43;;;;;;;14.30;6.80;;;;;;;2.20;100.00;102752.97;6104083;23;20174;-75
2024/02/18 07:33:10;;;;;;;13.87;5.70;;;;;;;2.29;100.00;102749.84;6104032;23;20166;-74
2024/02/18 07:35:37;;;;;;;18.83;6.47;;;;;;;2.37;100.00;102746.97;6103628;23;20448;-75
2024/02/18 07:38:04;;;;;;;17.27;6.43;;;;;;;2.46;100.00;102744.84;6103372;23;20189;-75
2024/02/18 07:40:31;;;;;;;18.60;6.17;;;;;;;2.55;100.00;102748.75;6103535;23;20173;-74
2024/02/18 07:42:57;;;;;;;21.37;5.23;;;;;;;2.63;100.00;102749.25;6103222;23;20167;-75
2024/02/18 07:45:23;;;;;;;13.57;5.97;;;;;;;2.74;100.00;102732.03;6103966;23;20169;-74
2024/02/18 07:47:50;;;;;;;16.93;6.07;;;;;;;2.81;100.00;102733.53;6103341;23;20196;-74
2024/02/18 07:50:17;;;;;;;17.37;5.73;;;;;;;2.91;100.00;102736.41;6068150;23;20193;-75
2024/02/18 07:52:43;;;;;;;10.57;5.63;;;;;;;3.00;100.00;102739.53;6103130;23;20162;-74
2024/02/18 07:55:11;;;;;;;16.53;6.60;;;;;;;3.11;100.00;102742.16;6103548;23;20166;-75
2024/02/18 07:57:39;;;;;;;20.50;6.33;;;;;;;3.22;100.00;102738.78;6067679;23;20184;-74
2024/02/18 08:00:07;;;;;;;21.20;6.20;;;;;;;3.31;100.00;102726.22;6103612;23;20169;-75
2024/02/18 08:02:33;;;;;;;20.73;7.83;;;;;;;3.44;100.00;102720.75;6093433;23;20179;-74
2024/02/18 08:05:00;;;;;;;19.37;7.97;;;;;;;3.54;100.00;102723.63;6103232;23;20161;-75
2024/02/18 08:07:27;;;;;;;21.23;8.37;;;;;;;3.67;100.00;102718.94;6102539;23;20173;-75
2024/02/18 08:09:54;;;;;;;17.70;7.33;;;;;;;3.79;100.00;102716.34;6102980;23;20216;-74
2024/02/18 08:12:22;;;;;;;21.00;7.30;;;;;;;3.93;100.00;102717.69;6067596;23;20170;-75
2024/02/18 08:14:48;;;;;;;21.77;6.90;;;;;;;4.02;100.00;102713.69;6103612;23;20166;-75
2024/02/18 08:17:14;;;;;;;20.37;7.43;;;;;;;4.13;100.00;102716.28;6102884;23;20501;-74
2024/02/18 08:19:42;;;;;;;25.23;7.87;;;;;;;4.25;100.00;102709.22;6102771;23;20182;-74
2024/02/18 08:22:08;;;;;;;21.63;7.90;;;;;;;4.39;100.00;102707.13;6102774;23;20168;-74
2024/02/18 08:24:35;;;;;;;24.60;8.30;;;;;;;4.49;100.00;102700.28;6102278;23;20168;-75
2024/02/18 08:27:01;;;;;;;19.50;6.97;;;;;;;4.60;100.00;102704.66;6102425;23;20166;-75
2024/02/18 08:29:29;;;;;;;16.53;6.17;;;;;;;4.72;100.00;102702.00;6102956;23;20447;-75
2024/02/18 08:32:00;;;;;;;14.30;6.30;;;;;;;4.84;100.00;102700.91;6102783;23;20193;-75
2024/02/18 08:34:26;;;;;;;17.80;6.90;;;;;;;4.94;100.00;102701.09;6102231;23;20171;-75
2024/02/18 08:36:53;;;;;;;21.27;6.47;;;;;;;5.06;100.00;102693.16;6066965;23;20631;-74
2024/02/18 08:39:20;;;;;;;15.97;5.97;;;;;;;5.17;100.00;102693.09;6102083;23;20190;-74
2024/02/18 08:41:47;;;;;;;13.27;5.73;;;;;;;5.27;100.00;102682.78;6067285;23;20205;-75
2024/02/18 08:44:14;;;;;;;8.47;4.77;;;;;;;5.41;100.00;102681.41;6102952;23;20170;-75
2024/02/18 08:46:43;;;;;;;21.40;5.63;;;;;;;5.54;100.00;102686.31;6095306;23;20174;-75
2024/02/18 08:49:10;;;;;;;12.83;5.27;;;;;;;5.65;100.00;102674.94;6102295;23;20190;-75
2024/02/18 08:51:38;;;;;;;12.83;5.27;;;;;;;5.76;100.00;102676.66;6067118;23;20635;-75
2024/02/18 08:54:06;;;;;;;13.27;4.17;;;;;;;5.86;100.00;102681.28;6067277;23;20258;-75
2024/02/18 08:56:33;;;;;;;10.43;4.10;;;;;;;5.97;100.00;102677.75;6102214;23;20194;-75
2024/02/18 08:59:00;;;;;;;8.73;3.70;;;;;;;6.06;100.00;102666.56;6092456;23;20198;-75
2024/02/18 09:01:26;;;;;;;6.67;3.40;;;;;;;6.16;100.00;102663.28;6102387;23;20528;-75
2024/02/18 09:03:54;;;;;;;7.87;3.17;;;;;;;6.26;100.00;102666.03;6101997;23;20162;-75
2024/02/18 09:06:21;;;;;;;7.07;2.60;;;;;;;6.34;100.00;102666.38;6101467;23;20163;-75
2024/02/18 09:08:47;;;;;;;4.53;2.60;;;;;;;6.43;100.00;102664.88;6101845;23;20193;-74
2024/02/18 09:11:14;;;;;;;5.27;2.33;;;;;;;6.53;100.00;102661.59;6102417;23;20173;-74
2024/02/18 09:13:42;;;;;;;7.77;2.37;;;;;;;6.64;100.00;102658.03;6102288;23;20596;-75
2024/02/18 09:16:08;;;;;;;8.93;2.20;;;;;;;6.73;100.00;102661.78;6066709;23;20646;-74
2024/02/18 09:18:35;;;;;;;5.83;2.40;;;;;;;6.82;100.00;102655.03;6102306;23;20190;-75
2024/02/18 09:21:04;;;;;;;6.30;2.17;;;;;;;6.92;100.00;102645.41;6103046;23;20225;-75
2024/02/18 09:23:33;;;;;;;2.80;1.90;;;;;;;7.03;100.00;102652.31;6101741;23;20175;-75
2024/02/18 09:26:00;;;;;;;6.33;2.03;;;;;;;7.14;100.00;102643.47;6101843;23;20242;-75
2024/02/18 09:28:26;;;;;;;4.17;2.30;;;;;;;7.25;100.00;102639.09;6101678;23;20206;-75
2024/02/18 09:30:54;;;;;;;4.87;2.70;;;;;;;7.33;100.00;102635.97;6101634;23;20190;-75
2024/02/18 09:33:20;;;;;;;4.30;1.90;;;;;;;7.42;100.00;102643.13;6101761;23;20643;-75
2024/02/18 09:35:47;;;;;;;6.73;2.30;;;;;;;7.49;100.00;102625.28;6102069;23;20177;-75
2024/02/18 09:38:15;;;;;;;4.07;2.37;;;;;;;7.59;100.00;102632.44;6066535;23;20519;-75
2024/02/18 09:40:41;;;;;;;6.53;2.40;;;;;;;7.66;100.00;102633.00;6101898;23;20161;-74
2024/02/18 09:43:07;;;;;;;6.53;2.50;;;;;;;7.74;100.00;102633.31;6101427;23;20269;-75
2024/02/18 09:45:36;;;;;;;7.07;3.13;;;;;;;7.83;100.00;102629.13;6066530;23;20685;-74
2024/02/18 09:48:03;;;;;;;8.40;2.70;;;;;;;7.92;100.00;102624.19;6101401;23;20384;-74
2024/02/18 09:50:31;;;;;;;9.80;3.20;;;;;;;7.98;100.00;102625.78;6101826;23;20642;-74
2024/02/18 09:52:57;;;;;;;4.80;2.37;;;;;;;8.03;100.00;102621.31;6101621;23;20233;-74
2024/02/18 09:55:25;;;;;;;4.97;2.33;;;;;;;8.10;100.00;102615.81;6066749;23;20177;-75
2024/02/18 09:57:52;;;;;;;4.83;2.50;;;;;;;8.14;100.00;102620.28;6101935;23;20276;-75
2024/02/18 10:00:20;;;;;;;9.70;3.57;;;;;;;8.21;100.00;102620.88;6102326;23;20166;-74
2024/02/18 10:02:47;;;;;;;5.97;2.07;;;;;;;8.27;100.00;102621.66;6101677;23;20484;-75
2024/02/18 10:05:13;;;;;;;8.90;2.43;;;;;;;8.34;100.00;102612.47;6101646;23;20172;-75
2024/02/18 10:07:39;;;;;;;5.03;2.00;;;;;;;8.41;100.00;102620.09;6100883;23;20248;-75
2024/02/18 10:10:07;;;;;;;8.70;2.63;;;;;;;8.48;100.00;102604.84;6101397;23;20265;-75
2024/02/18 10:12:35;;;;;;;3.87;2.10;;;;;;;8.53;100.00;102597.75;6101356;23;20192;-75
2024/02/18 10:15:03;;;;;;;4.60;2.00;;;;;;;8.60;100.00;102595.63;6066204;23;20179;-74
2024/02/18 10:17:30;;;;;;;8.43;2.47;;;;;;;8.65;100.00;102589.59;6101661;23;20174;-75
2024/02/18 10:19:56;;;;;;;4.93;2.00;;;;;;;8.72;100.00;102582.22;6101239;23;20166;-74
2024/02/18 10:22:24;;;;;;;6.60;2.27;;;;;;;8.77;100.00;102579.56;6101509;23;20172;-75
2024/02/18 10:24:51;;;;;;;6.73;2.40;;;;;;;8.82;100.00;102580.38;6101268;23;20174;-74
2024/02/18 10:27:18;;;;;;;6.07;2.63;;;;;;;8.86;100.00;102581.41;6101484;23;20170;-75
2024/02/18 10:29:47;;;;;;;7.07;2.63;;;;;;;8.89;100.00;102575.63;6100849;23;20186;-74
2024/02/18 10:32:14;;;;;;;3.87;1.77;;;;;;;8.92;100.00;102575.09;6101420;23;20166;-75
2024/02/18 10:34:43;;;;;;;5.93;2.37;;;;;;;8.95;100.00;102569.28;6092307;23;20170;-74
2024/02/18 10:37:18;;;;;;;4.20;2.27;;;;;;;9.00;100.00;102564.00;6100574;23;20198;-75
2024/02/18 10:39:46;;;;;;;4.47;1.90;;;;;;;9.05;100.00;102556.09;6101298;23;20256;-75
2024/02/18 10:42:13;;;;;;;5.20;2.20;;;;;;;9.11;100.00;102548.97;6066254;23;20420;-74
2024/02/18 10:44:44;;;;;;;4.87;1.97;;;;;;;9.17;100.00;102548.66;6101069;23;20165;-75
2024/02/18 10:47:16;;;;;;;3.47;1.90;;;;;;;9.22;100.00;102539.97;6101396;23;20363;-74
2024/02/18 10:49:48;;;;;;;3.43;1.90;;;;;;;9.26;100.00;102536.53;6103315;23;20190;-75
2024/02/18 10:52:21;;;;;;;5.30;1.83;;;;;;;9.30;100.00;102532.31;6102139;23;20172;-74
2024/02/18 10:54:53;;;;;;;4.23;2.20;;;;;;;9.34;100.00;102527.28;6102217;23;20177;-75
2024/02/18 10:57:26;;;;;;;9.03;2.27;;;;;;;9.37;100.00;102524.88;6103374;23;20173;-75
2024/02/18 10:59:57;;;;;;;8.40;2.87;;;;;;;9.41;100.00;102520.66;6103342;23;20172;-75
2024/02/18 11:02:33;;;;;;;6.13;2.23;;;;;;;9.45;100.00;102516.44;6067587;23;20175;-74
2024/02/18 11:05:01;;;;;;;5.87;2.30;;;;;;;9.47;100.00;102514.28;6102936;23;20585;-75
2024/02/18 11:07:28;;;;;;;3.80;2.07;;;;;;;9.50;100.00;102507.69;6102359;23;20180;-74
2024/02/18 11:09:57;;;;;;;3.70;2.57;;;;;;;9.52;100.00;102503.72;6067618;23;20250;-75
2024/02/18 11:12:25;;;;;;;6.67;2.40;;;;;;;9.53;100.00;102499.25;6102808;23;20186;-75
2024/02/18 11:14:53;;;;;;;6.23;2.00;;;;;;;9.57;100.00;102495.03;6066940;23;20257;-74
2024/02/18 11:17:20;;;;;;;4.50;2.00;;;;;;;9.61;100.00;102498.66;6102555;23;20162;-74
2024/02/18 11:19:50;;;;;;;3.63;1.90;;;;;;;9.65;100.00;102486.50;6102353;23;20218;-75
2024/02/18 11:22:16;;;;;;;3.43;2.50;;;;;;;9.70;100.00;102479.38;6102443;23;20171;-75
2024/02/18 11:24:45;;;;;;;3.47;2.00;;;;;;;9.75;100.00;102470.63;6102638;23;20485;-74
2024/02/18 11:27:12;;;;;;;9.53;2.60;;;;;;;9.83;100.00;102472.69;6102133;23;20192;-75
2024/02/18 11:29:46;;;;;;;11.30;2.57;;;;;;;9.89;100.00;102471.59;6100956;23;20649;-74
2024/02/18 11:32:12;;;;;;;5.70;2.33;;;;;;;9.97;100.00;102457.81;6102718;23;20176;-75